Webcam

2023/02/02 00:50 EBBR 020050Z 27014KT 9999 BKN042 08/04 Q1024 NOSIG

Webcam

--- Refresh now ---